Delta Buck — WDF8798 — position and weather

sailwx.info

Track history (hours):
 
Tides and Currents Weather Stations Pressure Air Temp Water Temp Dewpoint Dewpoint Depression Visibility Wind Speed Wind Dir Waves Ship Positions

Delta Buck

Owner: Crosby Marine Transportation, Golden Meadow, LA. More information available from US FCC via Universal Licensing System and Coast Guard Vessel Documentation Center.

Last reported at 2017-Nov-18 07:53 UTC. Time now 2017-Nov-18 08:36 UTC.
Position N 29°35' W 090°36'.

Length 20 m.

Type: Towing. MMSI: 367498680.

Date/timePositionNaut miles runAvg speedWind from/ knotsBaromVisibWave heightAir tempDewpointWater temp
2017-Nov-18 07:53N 29°35' W 090°36'0 0.0
2017-Nov-18 05:29N 29°35' W 090°36'0 0.0
2017-Nov-17 23:23N 29°35' W 090°36'0 0.0
2017-Nov-17 20:11N 29°35' W 090°36'0 0.0
2017-Nov-17 19:47N 29°35' W 090°36'0 0.0
2017-Nov-17 19:29N 29°35' W 090°36'0 0.0
2017-Nov-17 18:53N 29°35' W 090°36'0 0.0
2017-Nov-17 18:29N 29°35' W 090°36'0 0.0
2017-Nov-17 16:35N 29°35' W 090°36'0 0.0
2017-Nov-17 16:17N 29°35' W 090°36'0 0.0
2017-Nov-17 15:47N 29°35' W 090°36'0 0.0
2017-Nov-16 23:29N 29°35' W 090°36'0 0.0
2017-Nov-16 22:59N 29°35' W 090°36'0 0.1
2017-Nov-16 22:30N 29°35' W 090°36'3 5.2
2017-Nov-16 22:00N 29°36' W 090°39'1 2.8
2017-Nov-16 21:30N 29°36' W 090°40'0 0.1
2017-Nov-16 21:00N 29°36' W 090°40'0 0.0
2017-Nov-16 20:31N 29°36' W 090°40'0 0.0
2017-Nov-16 20:01N 29°36' W 090°40'0 0.0
2017-Nov-16 19:30N 29°36' W 090°40'0 0.0
2017-Nov-16 19:01N 29°36' W 090°40'0 0.0
2017-Nov-16 18:30N 29°36' W 090°40'0 0.0
2017-Nov-16 18:00N 29°36' W 090°40'0 0.0
2017-Nov-16 17:30N 29°36' W 090°40'0 0.0
2017-Nov-16 17:00N 29°36' W 090°40'0 0.0
2017-Nov-16 16:30N 29°36' W 090°40'0 0.0
2017-Nov-16 16:00N 29°36' W 090°40'0 0.0
2017-Nov-16 15:30N 29°36' W 090°40'0 0.0
2017-Nov-16 15:00N 29°36' W 090°40'0 0.0
2017-Nov-16 14:30N 29°36' W 090°40'0 0.0
2017-Nov-16 14:00N 29°36' W 090°40'0 0.3
2017-Nov-16 13:30N 29°36' W 090°40'0 0.3
2017-Nov-16 13:01N 29°36' W 090°40'0 0.0
2017-Nov-16 12:30N 29°36' W 090°40'2 4.0
2017-Nov-16 12:00N 29°37' W 090°42'3 5.2
2017-Nov-16 11:31N 29°34' W 090°43'1 2.7
2017-Nov-16 10:59N 29°33' W 090°42'0 0.0
2017-Nov-16 10:29N 29°33' W 090°42'0 0.0
2017-Nov-16 09:59N 29°33' W 090°42'0 0.0
2017-Nov-16 09:29N 29°33' W 090°42'0 0.0
2017-Nov-16 08:59N 29°33' W 090°42'0 0.0
2017-Nov-16 08:29N 29°33' W 090°42'0 0.0
2017-Nov-16 07:59N 29°33' W 090°42'0 0.0
2017-Nov-16 07:29N 29°33' W 090°42'0 0.0
2017-Nov-16 06:59N 29°33' W 090°42'0 0.0
2017-Nov-16 06:29N 29°33' W 090°42'0 0.0
2017-Nov-16 05:59N 29°33' W 090°42'0 0.0
2017-Nov-16 05:29N 29°33' W 090°42'0 0.0
2017-Nov-16 04:59N 29°33' W 090°42'0 0.0
2017-Nov-16 04:29N 29°33' W 090°42'0 0.0
2017-Nov-16 03:59N 29°33' W 090°42'0 0.0
2017-Nov-16 03:29N 29°33' W 090°42'0 0.0
2017-Nov-16 02:59N 29°33' W 090°42'0 0.0
2017-Nov-16 02:29N 29°33' W 090°42'0 0.0
2017-Nov-16 01:59N 29°33' W 090°42'0 0.0
2017-Nov-16 01:29N 29°33' W 090°42'0 0.0
2017-Nov-16 00:59N 29°33' W 090°42'0 0.0
2017-Nov-16 00:29N 29°33' W 090°42'0 0.0
2017-Nov-15 23:59N 29°33' W 090°42'0 0.0
2017-Nov-15 23:29N 29°33' W 090°42'0 0.0
2017-Nov-15 22:59N 29°33' W 090°42'0 0.0
2017-Nov-15 22:29N 29°33' W 090°42'0 0.1
2017-Nov-15 21:59N 29°33' W 090°42'0 0.0
2017-Nov-15 21:29N 29°33' W 090°42'0 0.0
2017-Nov-15 20:59N 29°33' W 090°42'0 0.0
2017-Nov-15 20:29N 29°33' W 090°42'0 0.0
2017-Nov-15 19:59N 29°33' W 090°42'0 0.0
2017-Nov-15 19:29N 29°33' W 090°42'0 0.0
2017-Nov-15 18:59N 29°33' W 090°42'0 0.0
2017-Nov-15 18:29N 29°33' W 090°42'0 0.0
2017-Nov-15 17:59N 29°33' W 090°42'0 0.0
2017-Nov-15 17:29N 29°33' W 090°42'0 0.0
2017-Nov-15 16:59N 29°33' W 090°42'0 0.0
2017-Nov-15 16:29N 29°33' W 090°42'0 0.0
2017-Nov-15 15:59N 29°33' W 090°42'0 0.0
2017-Nov-15 15:29N 29°33' W 090°42'0 0.0
2017-Nov-15 14:59N 29°33' W 090°42'0 0.0
2017-Nov-15 14:29N 29°33' W 090°42'0 0.0
2017-Nov-15 13:59N 29°33' W 090°42'0 0.0
2017-Nov-15 13:29N 29°33' W 090°42'0 0.0
2017-Nov-15 12:59N 29°33' W 090°42'0 0.0
2017-Nov-15 12:29N 29°33' W 090°42'0 0.0
2017-Nov-15 11:59N 29°33' W 090°42'0 0.0
2017-Nov-15 11:29N 29°33' W 090°42'0 0.0
2017-Nov-15 10:59N 29°33' W 090°42'0 0.0
2017-Nov-15 10:29N 29°33' W 090°42'0 0.0
2017-Nov-15 09:56N 29°33' W 090°42'0 0.0
2017-Nov-15 09:29N 29°33' W 090°42'0 0.0
2017-Nov-15 08:59N 29°33' W 090°42'0 0.0
2017-Nov-15 08:29N 29°33' W 090°42'0 0.0
2017-Nov-15 07:59N 29°33' W 090°42'0 0.0
2017-Nov-15 07:29N 29°33' W 090°42'0 0.0
2017-Nov-15 06:56N 29°33' W 090°42'0 0.1
2017-Nov-15 06:29N 29°33' W 090°42'0 0.0
2017-Nov-15 05:56N 29°33' W 090°42'0 0.0
2017-Nov-15 05:29N 29°33' W 090°42'0 0.0
2017-Nov-15 04:56N 29°33' W 090°42'0 0.0
2017-Nov-15 04:29N 29°33' W 090°42'0 0.0
2017-Nov-15 03:59N 29°33' W 090°42'0 0.0
2017-Nov-15 03:29N 29°33' W 090°42'0 0.0
2017-Nov-15 02:59N 29°33' W 090°42'0 0.0
2017-Nov-15 02:29N 29°33' W 090°42'0 0.0
2017-Nov-15 01:56N 29°33' W 090°42'0 0.0
2017-Nov-15 01:29N 29°33' W 090°42'0 0.0
2017-Nov-15 00:59N 29°33' W 090°42'0 0.0
2017-Nov-15 00:26N 29°33' W 090°42'0 0.0
2017-Nov-14 23:59N 29°33' W 090°42'0 0.0
2017-Nov-14 23:30N 29°33' W 090°42'0 0.0
2017-Nov-14 23:00N 29°33' W 090°42'0 0.0
2017-Nov-14 22:30N 29°33' W 090°42'0 0.0
2017-Nov-14 22:00N 29°33' W 090°42'0 0.0
2017-Nov-14 21:30N 29°33' W 090°42'0 0.0
2017-Nov-14 21:00N 29°33' W 090°42'0 0.0
2017-Nov-14 20:30N 29°33' W 090°42'3 5.4
2017-Nov-14 20:00N 29°30' W 090°43'4 8.2
2017-Nov-14 19:30N 29°26' W 090°43'1 0.1
2017-Nov-14 14:24N 29°25' W 090°43'3 7.4
2017-Nov-14 13:58N 29°29' W 090°43'3 7.2
2017-Nov-14 13:30N 29°32' W 090°42'1 1.8
2017-Nov-14 13:00N 29°33' W 090°42'0 0.0
2017-Nov-14 12:30N 29°33' W 090°42'0 0.0
2017-Nov-14 12:00N 29°33' W 090°42'0 0.1
2017-Nov-14 11:30N 29°33' W 090°42'0 0.1
2017-Nov-14 11:00N 29°33' W 090°42'0 0.0
2017-Nov-14 10:30N 29°33' W 090°42'0 0.0
2017-Nov-14 10:00N 29°33' W 090°42'0 0.0
2017-Nov-14 09:31N 29°33' W 090°42'0 0.0
2017-Nov-14 09:00N 29°33' W 090°42'0 0.0
2017-Nov-14 08:30N 29°33' W 090°42'0 0.0
2017-Nov-14 08:00N 29°33' W 090°42'0 0.0
2017-Nov-14 07:30N 29°33' W 090°42'0 0.0
2017-Nov-14 07:00N 29°33' W 090°42'0 0.0
2017-Nov-14 06:30N 29°33' W 090°42'0 0.0
2017-Nov-14 06:00N 29°33' W 090°42'0 0.0
2017-Nov-14 05:30N 29°33' W 090°42'0 0.0
2017-Nov-14 05:00N 29°33' W 090°42'0 0.0
2017-Nov-14 04:30N 29°33' W 090°42'0 0.0
2017-Nov-14 04:00N 29°33' W 090°42'0 0.0
2017-Nov-14 03:30N 29°33' W 090°42'0 0.0
2017-Nov-14 03:00N 29°33' W 090°42'0 0.0
2017-Nov-14 02:30N 29°33' W 090°42'0 0.0
2017-Nov-14 02:00N 29°33' W 090°42'0 0.0
2017-Nov-14 01:30N 29°33' W 090°42'0 0.0
2017-Nov-14 01:00N 29°33' W 090°42'0 0.0
2017-Nov-14 00:30N 29°33' W 090°42'0 0.0
2017-Nov-14 00:00N 29°33' W 090°42'0 0.0
2017-Nov-13 23:30N 29°33' W 090°42'0 0.0
2017-Nov-13 23:00N 29°33' W 090°42'0 0.0
2017-Nov-13 22:30N 29°33' W 090°42'0 0.0
2017-Nov-13 22:00N 29°33' W 090°42'7 0.4
2017-Nov-13 02:00N 29°32' W 090°50'0 0.0
2017-Nov-12 21:52N 29°32' W 090°50'2 5.8
2017-Nov-12 21:30N 29°32' W 090°48'2 4.6
2017-Nov-12 21:00N 29°33' W 090°45'2 4.2
2017-Nov-12 20:30N 29°34' W 090°43'1 2.0
2017-Nov-12 20:00N 29°33' W 090°43'2 3.5
2017-Nov-12 19:30N 29°32' W 090°42'3 5.8
2017-Nov-12 19:00N 29°29' W 090°43'3 5.1
2017-Nov-12 18:30N 29°26' W 090°43'1 0.1
2017-Nov-12 07:54N 29°25' W 090°44'3 7.7
2017-Nov-12 07:30N 29°28' W 090°43'4 7.6
2017-Nov-12 07:00N 29°32' W 090°42'1 2.7
2017-Nov-12 06:30N 29°33' W 090°42'0 0.0
2017-Nov-12 06:00N 29°33' W 090°42'0 0.0
2017-Nov-12 05:30N 29°33' W 090°42'0 0.0
2017-Nov-12 05:00N 29°33' W 090°42'0 0.0
2017-Nov-12 04:30N 29°33' W 090°42'0 0.0
2017-Nov-12 04:00N 29°33' W 090°42'2 4.6
2017-Nov-12 03:30N 29°35' W 090°43'2 4.4
2017-Nov-12 03:00N 29°36' W 090°41'4 7.4
2017-Nov-12 02:30N 29°35' W 090°37'1 2.6
2017-Nov-12 02:00N 29°35' W 090°36'0 0.0
2017-Nov-12 01:30N 29°35' W 090°36'0 0.0
2017-Nov-12 01:00N 29°35' W 090°36'0 0.0
2017-Nov-12 00:30N 29°35' W 090°36'0 0.0
2017-Nov-12 00:00N 29°35' W 090°36'0 0.0
2017-Nov-11 23:30N 29°35' W 090°36'0 0.0
2017-Nov-11 23:00N 29°35' W 090°36'0 0.0
2017-Nov-11 22:30N 29°35' W 090°36'0 0.0
2017-Nov-11 22:00N 29°35' W 090°36'0 0.0
2017-Nov-11 21:30N 29°35' W 090°36'0 0.0
2017-Nov-11 21:00N 29°35' W 090°36'0 0.0
2017-Nov-11 20:30N 29°35' W 090°36'1 2.5
2017-Nov-11 20:01N 29°35' W 090°37'4 7.5
2017-Nov-11 19:30N 29°36' W 090°41'2 4.5
2017-Nov-11 19:01N 29°35' W 090°43'3 6.0
2017-Nov-11 18:31N 29°33' W 090°45'4 0.2
2017-Nov-11 00:43N 29°32' W 090°50'2 7.3
2017-Nov-11 00:24N 29°32' W 090°47'2 6.2
2017-Nov-11 00:01N 29°33' W 090°45'2 4.8
2017-Nov-10 23:31N 29°35' W 090°43'2 4.3
2017-Nov-10 23:01N 29°36' W 090°41'4 7.4
2017-Nov-10 22:31N 29°35' W 090°37'1 2.5
2017-Nov-10 21:56N 29°35' W 090°36'2 4.5
2017-Nov-10 21:27N 29°35' W 090°38'2 0.3
2017-Nov-10 16:01N 29°36' W 090°40'0 0.1
2017-Nov-10 15:55N 29°36' W 090°40'0 0.0
2017-Nov-10 15:26N 29°36' W 090°40'1 2.3
2017-Nov-10 15:00N 29°36' W 090°39'3 6.0
2017-Nov-10 14:30N 29°35' W 090°36'0 0.1
2017-Nov-10 13:56N 29°35' W 090°36'1 0.0
2017-Nov-10 01:55N 29°35' W 090°36'0 0.0
2017-Nov-10 01:25N 29°35' W 090°36'0 0.0
2017-Nov-10 00:13N 29°35' W 090°36'0 0.0
2017-Nov-09 23:55N 29°35' W 090°36'0 0.0
2017-Nov-09 23:19N 29°35' W 090°36'0 0.0
2017-Nov-09 22:49N 29°35' W 090°36'0 0.0
2017-Nov-09 22:19N 29°35' W 090°36'0 0.0
2017-Nov-09 21:55N 29°35' W 090°36'0 0.0
2017-Nov-09 21:30N 29°35' W 090°36'0 0.0
2017-Nov-09 21:00N 29°35' W 090°36'0 0.3
2017-Nov-09 20:30N 29°35' W 090°36'3 6.7
2017-Nov-09 20:00N 29°34' W 090°32'3 0.1
2017-Nov-08 19:36N 29°34' W 090°29'1 8.4
2017-Nov-08 19:27N 29°34' W 090°31'4 8.1
2017-Nov-08 18:55N 29°35' W 090°35'3 7.2
2017-Nov-08 18:27N 29°36' W 090°39'3 6.7
2017-Nov-08 18:01N 29°37' W 090°42'3 6.0
2017-Nov-08 17:30N 29°34' W 090°43'4 7.5
2017-Nov-08 17:01N 29°30' W 090°43'4 7.0
2017-Nov-08 16:30N 29°27' W 090°43'1 0.2
2017-Nov-08 11:14N 29°26' W 090°43'2 8.1
2017-Nov-08 10:59N 29°28' W 090°43'4 8.1
2017-Nov-08 10:31N 29°31' W 090°42'1 2.7
2017-Nov-08 09:59N 29°33' W 090°42'0 0.0
2017-Nov-08 09:26N 29°33' W 090°42'0 0.0
2017-Nov-08 08:59N 29°33' W 090°42'0 0.0
2017-Nov-08 08:29N 29°33' W 090°42'0 0.0
2017-Nov-08 07:59N 29°33' W 090°42'  
Track history (hours):
 
Tides and Currents Weather Stations Pressure Air Temp Water Temp Dewpoint Dewpoint Depression Visibility Wind Speed Wind Dir Waves Ship Positions

Delta Buck

Owner: Crosby Marine Transportation, Golden Meadow, LA. More information available from US FCC via Universal Licensing System and Coast Guard Vessel Documentation Center.

Last reported at 2017-Nov-18 07:53 UTC. Time now 2017-Nov-18 08:36 UTC.
Position N 29°35' W 090°36'.

Length 20 m.

Type: Towing. MMSI: 367498680.

Date/timePositionNaut miles runAvg speedWind from/ knotsBaromVisibWave heightAir tempDewpointWater temp
2017-Nov-18 07:53N 29°35' W 090°36'0 0.0
2017-Nov-18 05:29N 29°35' W 090°36'0 0.0
2017-Nov-17 23:23N 29°35' W 090°36'0 0.0
2017-Nov-17 20:11N 29°35' W 090°36'0 0.0
2017-Nov-17 19:47N 29°35' W 090°36'0 0.0
2017-Nov-17 19:29N 29°35' W 090°36'0 0.0
2017-Nov-17 18:53N 29°35' W 090°36'0 0.0
2017-Nov-17 18:29N 29°35' W 090°36'0 0.0
2017-Nov-17 16:35N 29°35' W 090°36'0 0.0
2017-Nov-17 16:17N 29°35' W 090°36'0 0.0
2017-Nov-17 15:47N 29°35' W 090°36'0 0.0
2017-Nov-16 23:29N 29°35' W 090°36'0 0.0
2017-Nov-16 22:59N 29°35' W 090°36'0 0.1
2017-Nov-16 22:30N 29°35' W 090°36'3 5.2
2017-Nov-16 22:00N 29°36' W 090°39'1 2.8
2017-Nov-16 21:30N 29°36' W 090°40'0 0.1
2017-Nov-16 21:00N 29°36' W 090°40'0 0.0
2017-Nov-16 20:31N 29°36' W 090°40'0 0.0
2017-Nov-16 20:01N 29°36' W 090°40'0 0.0
2017-Nov-16 19:30N 29°36' W 090°40'0 0.0
2017-Nov-16 19:01N 29°36' W 090°40'0 0.0
2017-Nov-16 18:30N 29°36' W 090°40'0 0.0
2017-Nov-16 18:00N 29°36' W 090°40'0 0.0
2017-Nov-16 17:30N 29°36' W 090°40'0 0.0
2017-Nov-16 17:00N 29°36' W 090°40'0 0.0
2017-Nov-16 16:30N 29°36' W 090°40'0 0.0
2017-Nov-16 16:00N 29°36' W 090°40'0 0.0
2017-Nov-16 15:30N 29°36' W 090°40'0 0.0
2017-Nov-16 15:00N 29°36' W 090°40'0 0.0
2017-Nov-16 14:30N 29°36' W 090°40'0 0.0
2017-Nov-16 14:00N 29°36' W 090°40'0 0.3
2017-Nov-16 13:30N 29°36' W 090°40'0 0.3
2017-Nov-16 13:01N 29°36' W 090°40'0 0.0
2017-Nov-16 12:30N 29°36' W 090°40'2 4.0
2017-Nov-16 12:00N 29°37' W 090°42'3 5.2
2017-Nov-16 11:31N 29°34' W 090°43'1 2.7
2017-Nov-16 10:59N 29°33' W 090°42'0 0.0
2017-Nov-16 10:29N 29°33' W 090°42'0 0.0
2017-Nov-16 09:59N 29°33' W 090°42'0 0.0
2017-Nov-16 09:29N 29°33' W 090°42'0 0.0
2017-Nov-16 08:59N 29°33' W 090°42'0 0.0
2017-Nov-16 08:29N 29°33' W 090°42'0 0.0
2017-Nov-16 07:59N 29°33' W 090°42'0 0.0
2017-Nov-16 07:29N 29°33' W 090°42'0 0.0
2017-Nov-16 06:59N 29°33' W 090°42'0 0.0
2017-Nov-16 06:29N 29°33' W 090°42'0 0.0
2017-Nov-16 05:59N 29°33' W 090°42'0 0.0
2017-Nov-16 05:29N 29°33' W 090°42'0 0.0
2017-Nov-16 04:59N 29°33' W 090°42'0 0.0
2017-Nov-16 04:29N 29°33' W 090°42'0 0.0
2017-Nov-16 03:59N 29°33' W 090°42'0 0.0
2017-Nov-16 03:29N 29°33' W 090°42'0 0.0
2017-Nov-16 02:59N 29°33' W 090°42'0 0.0
2017-Nov-16 02:29N 29°33' W 090°42'0 0.0
2017-Nov-16 01:59N 29°33' W 090°42'0 0.0
2017-Nov-16 01:29N 29°33' W 090°42'0 0.0
2017-Nov-16 00:59N 29°33' W 090°42'0 0.0
2017-Nov-16 00:29N 29°33' W 090°42'0 0.0
2017-Nov-15 23:59N 29°33' W 090°42'0 0.0
2017-Nov-15 23:29N 29°33' W 090°42'0 0.0
2017-Nov-15 22:59N 29°33' W 090°42'0 0.0
2017-Nov-15 22:29N 29°33' W 090°42'0 0.1
2017-Nov-15 21:59N 29°33' W 090°42'0 0.0
2017-Nov-15 21:29N 29°33' W 090°42'0 0.0
2017-Nov-15 20:59N 29°33' W 090°42'0 0.0
2017-Nov-15 20:29N 29°33' W 090°42'0 0.0
2017-Nov-15 19:59N 29°33' W 090°42'0 0.0
2017-Nov-15 19:29N 29°33' W 090°42'0 0.0
2017-Nov-15 18:59N 29°33' W 090°42'0 0.0
2017-Nov-15 18:29N 29°33' W 090°42'0 0.0
2017-Nov-15 17:59N 29°33' W 090°42'0 0.0
2017-Nov-15 17:29N 29°33' W 090°42'0 0.0
2017-Nov-15 16:59N 29°33' W 090°42'0 0.0
2017-Nov-15 16:29N 29°33' W 090°42'0 0.0
2017-Nov-15 15:59N 29°33' W 090°42'0 0.0
2017-Nov-15 15:29N 29°33' W 090°42'0 0.0
2017-Nov-15 14:59N 29°33' W 090°42'0 0.0
2017-Nov-15 14:29N 29°33' W 090°42'0 0.0
2017-Nov-15 13:59N 29°33' W 090°42'0 0.0
2017-Nov-15 13:29N 29°33' W 090°42'0 0.0
2017-Nov-15 12:59N 29°33' W 090°42'0 0.0
2017-Nov-15 12:29N 29°33' W 090°42'0 0.0
2017-Nov-15 11:59N 29°33' W 090°42'0 0.0
2017-Nov-15 11:29N 29°33' W 090°42'0 0.0
2017-Nov-15 10:59N 29°33' W 090°42'0 0.0
2017-Nov-15 10:29N 29°33' W 090°42'0 0.0
2017-Nov-15 09:56N 29°33' W 090°42'0 0.0
2017-Nov-15 09:29N 29°33' W 090°42'0 0.0
2017-Nov-15 08:59N 29°33' W 090°42'0 0.0
2017-Nov-15 08:29N 29°33' W 090°42'0 0.0
2017-Nov-15 07:59N 29°33' W 090°42'0 0.0
2017-Nov-15 07:29N 29°33' W 090°42'0 0.0
2017-Nov-15 06:56N 29°33' W 090°42'0 0.1
2017-Nov-15 06:29N 29°33' W 090°42'0 0.0
2017-Nov-15 05:56N 29°33' W 090°42'0 0.0
2017-Nov-15 05:29N 29°33' W 090°42'0 0.0
2017-Nov-15 04:56N 29°33' W 090°42'0 0.0
2017-Nov-15 04:29N 29°33' W 090°42'0 0.0
2017-Nov-15 03:59N 29°33' W 090°42'0 0.0
2017-Nov-15 03:29N 29°33' W 090°42'0 0.0
2017-Nov-15 02:59N 29°33' W 090°42'0 0.0
2017-Nov-15 02:29N 29°33' W 090°42'0 0.0
2017-Nov-15 01:56N 29°33' W 090°42'0 0.0
2017-Nov-15 01:29N 29°33' W 090°42'0 0.0
2017-Nov-15 00:59N 29°33' W 090°42'0 0.0
2017-Nov-15 00:26N 29°33' W 090°42'0 0.0
2017-Nov-14 23:59N 29°33' W 090°42'0 0.0
2017-Nov-14 23:30N 29°33' W 090°42'0 0.0
2017-Nov-14 23:00N 29°33' W 090°42'0 0.0
2017-Nov-14 22:30N 29°33' W 090°42'0 0.0
2017-Nov-14 22:00N 29°33' W 090°42'0 0.0
2017-Nov-14 21:30N 29°33' W 090°42'0 0.0
2017-Nov-14 21:00N 29°33' W 090°42'0 0.0
2017-Nov-14 20:30N 29°33' W 090°42'3 5.4
2017-Nov-14 20:00N 29°30' W 090°43'4 8.2
2017-Nov-14 19:30N 29°26' W 090°43'1 0.1
2017-Nov-14 14:24N 29°25' W 090°43'3 7.4
2017-Nov-14 13:58N 29°29' W 090°43'3 7.2
2017-Nov-14 13:30N 29°32' W 090°42'1 1.8
2017-Nov-14 13:00N 29°33' W 090°42'0 0.0
2017-Nov-14 12:30N 29°33' W 090°42'0 0.0
2017-Nov-14 12:00N 29°33' W 090°42'0 0.1
2017-Nov-14 11:30N 29°33' W 090°42'0 0.1
2017-Nov-14 11:00N 29°33' W 090°42'0 0.0
2017-Nov-14 10:30N 29°33' W 090°42'0 0.0
2017-Nov-14 10:00N 29°33' W 090°42'0 0.0
2017-Nov-14 09:31N 29°33' W 090°42'0 0.0
2017-Nov-14 09:00N 29°33' W 090°42'0 0.0
2017-Nov-14 08:30N 29°33' W 090°42'0 0.0
2017-Nov-14 08:00N 29°33' W 090°42'0 0.0
2017-Nov-14 07:30N 29°33' W 090°42'0 0.0
2017-Nov-14 07:00N 29°33' W 090°42'0 0.0
2017-Nov-14 06:30N 29°33' W 090°42'0 0.0
2017-Nov-14 06:00N 29°33' W 090°42'0 0.0
2017-Nov-14 05:30N 29°33' W 090°42'0 0.0
2017-Nov-14 05:00N 29°33' W 090°42'0 0.0
2017-Nov-14 04:30N 29°33' W 090°42'0 0.0
2017-Nov-14 04:00N 29°33' W 090°42'0 0.0
2017-Nov-14 03:30N 29°33' W 090°42'0 0.0
2017-Nov-14 03:00N 29°33' W 090°42'0 0.0
2017-Nov-14 02:30N 29°33' W 090°42'0 0.0
2017-Nov-14 02:00N 29°33' W 090°42'0 0.0
2017-Nov-14 01:30N 29°33' W 090°42'0 0.0
2017-Nov-14 01:00N 29°33' W 090°42'0 0.0
2017-Nov-14 00:30N 29°33' W 090°42'0 0.0
2017-Nov-14 00:00N 29°33' W 090°42'0 0.0
2017-Nov-13 23:30N 29°33' W 090°42'0 0.0
2017-Nov-13 23:00N 29°33' W 090°42'0 0.0
2017-Nov-13 22:30N 29°33' W 090°42'0 0.0
2017-Nov-13 22:00N 29°33' W 090°42'7 0.4
2017-Nov-13 02:00N 29°32' W 090°50'0 0.0
2017-Nov-12 21:52N 29°32' W 090°50'2 5.8
2017-Nov-12 21:30N 29°32' W 090°48'2 4.6
2017-Nov-12 21:00N 29°33' W 090°45'2 4.2
2017-Nov-12 20:30N 29°34' W 090°43'1 2.0
2017-Nov-12 20:00N 29°33' W 090°43'2 3.5
2017-Nov-12 19:30N 29°32' W 090°42'3 5.8
2017-Nov-12 19:00N 29°29' W 090°43'3 5.1
2017-Nov-12 18:30N 29°26' W 090°43'1 0.1
2017-Nov-12 07:54N 29°25' W 090°44'3 7.7
2017-Nov-12 07:30N 29°28' W 090°43'4 7.6
2017-Nov-12 07:00N 29°32' W 090°42'1 2.7
2017-Nov-12 06:30N 29°33' W 090°42'0 0.0
2017-Nov-12 06:00N 29°33' W 090°42'0 0.0
2017-Nov-12 05:30N 29°33' W 090°42'0 0.0
2017-Nov-12 05:00N 29°33' W 090°42'0 0.0
2017-Nov-12 04:30N 29°33' W 090°42'0 0.0
2017-Nov-12 04:00N 29°33' W 090°42'2 4.6
2017-Nov-12 03:30N 29°35' W 090°43'2 4.4
2017-Nov-12 03:00N 29°36' W 090°41'4 7.4
2017-Nov-12 02:30N 29°35' W 090°37'1 2.6
2017-Nov-12 02:00N 29°35' W 090°36'0 0.0
2017-Nov-12 01:30N 29°35' W 090°36'0 0.0
2017-Nov-12 01:00N 29°35' W 090°36'0 0.0
2017-Nov-12 00:30N 29°35' W 090°36'0 0.0
2017-Nov-12 00:00N 29°35' W 090°36'0 0.0
2017-Nov-11 23:30N 29°35' W 090°36'0 0.0
2017-Nov-11 23:00N 29°35' W 090°36'0 0.0
2017-Nov-11 22:30N 29°35' W 090°36'0 0.0
2017-Nov-11 22:00N 29°35' W 090°36'0 0.0
2017-Nov-11 21:30N 29°35' W 090°36'0 0.0
2017-Nov-11 21:00N 29°35' W 090°36'0 0.0
2017-Nov-11 20:30N 29°35' W 090°36'1 2.5
2017-Nov-11 20:01N 29°35' W 090°37'4 7.5
2017-Nov-11 19:30N 29°36' W 090°41'2 4.5
2017-Nov-11 19:01N 29°35' W 090°43'3 6.0
2017-Nov-11 18:31N 29°33' W 090°45'4 0.2
2017-Nov-11 00:43N 29°32' W 090°50'2 7.3
2017-Nov-11 00:24N 29°32' W 090°47'2 6.2
2017-Nov-11 00:01N 29°33' W 090°45'2 4.8
2017-Nov-10 23:31N 29°35' W 090°43'2 4.3
2017-Nov-10 23:01N 29°36' W 090°41'4 7.4
2017-Nov-10 22:31N 29°35' W 090°37'1 2.5
2017-Nov-10 21:56N 29°35' W 090°36'2 4.5
2017-Nov-10 21:27N 29°35' W 090°38'2 0.3
2017-Nov-10 16:01N 29°36' W 090°40'0 0.1
2017-Nov-10 15:55N 29°36' W 090°40'0 0.0
2017-Nov-10 15:26N 29°36' W 090°40'1 2.3
2017-Nov-10 15:00N 29°36' W 090°39'3 6.0
2017-Nov-10 14:30N 29°35' W 090°36'0 0.1
2017-Nov-10 13:56N 29°35' W 090°36'1 0.0
2017-Nov-10 01:55N 29°35' W 090°36'0 0.0
2017-Nov-10 01:25N 29°35' W 090°36'0 0.0
2017-Nov-10 00:13N 29°35' W 090°36'0 0.0
2017-Nov-09 23:55N 29°35' W 090°36'0 0.0
2017-Nov-09 23:19N 29°35' W 090°36'0 0.0
2017-Nov-09 22:49N 29°35' W 090°36'0 0.0
2017-Nov-09 22:19N 29°35' W 090°36'0 0.0
2017-Nov-09 21:55N 29°35' W 090°36'0 0.0
2017-Nov-09 21:30N 29°35' W 090°36'0 0.0
2017-Nov-09 21:00N 29°35' W 090°36'0 0.3
2017-Nov-09 20:30N 29°35' W 090°36'3 6.7
2017-Nov-09 20:00N 29°34' W 090°32'3 0.1
2017-Nov-08 19:36N 29°34' W 090°29'1 8.4
2017-Nov-08 19:27N 29°34' W 090°31'4 8.1
2017-Nov-08 18:55N 29°35' W 090°35'3 7.2
2017-Nov-08 18:27N 29°36' W 090°39'3 6.7
2017-Nov-08 18:01N 29°37' W 090°42'3 6.0
2017-Nov-08 17:30N 29°34' W 090°43'4 7.5
2017-Nov-08 17:01N 29°30' W 090°43'4 7.0
2017-Nov-08 16:30N 29°27' W 090°43'1 0.2
2017-Nov-08 11:14N 29°26' W 090°43'2 8.1
2017-Nov-08 10:59N 29°28' W 090°43'4 8.1
2017-Nov-08 10:31N 29°31' W 090°42'1 2.7
2017-Nov-08 09:59N 29°33' W 090°42'0 0.0
2017-Nov-08 09:26N 29°33' W 090°42'0 0.0
2017-Nov-08 08:59N 29°33' W 090°42'0 0.0
2017-Nov-08 08:29N 29°33' W 090°42'0 0.0
2017-Nov-08 07:59N 29°33' W 090°42'  

Dump ship's entire track history